This is the latest recevied weather packets stored in our database for station/object XQ6AK-15. If no packets are shown the sender has not sent any weather packets the latest 10 day(s).
| Time | Temp. | Humidity | Pressure | Rain* | Wind** | Luminosity | Snow |
|---|---|---|---|---|---|---|---|
| 1787673345 | 10.56° C | 99% | 1000.5 hPa | 6.1 mm | - | 22 W/m² | - |
| 1787673040 | 10.56° C | 99% | 1000.6 hPa | 4.83 mm | - | 21 W/m² | - |
| 1787672734 | 10.56° C | 99% | 1000.7 hPa | 3.05 mm | - | 28 W/m² | - |
| 1787672430 | 10.56° C | 99% | 1000.5 hPa | 4.32 mm | - | 35 W/m² | - |
| 1787672124 | 10.56° C | 99% | 1000.5 hPa | 1.27 mm | - | 43 W/m² | - |
| 1787671819 | 10.56° C | 99% | 1000.6 hPa | 0 mm | - | 60 W/m² | - |
| 1787671514 | 10.56° C | 99% | 1000.4 hPa | 1.78 mm | - | 61 W/m² | - |
| 1787671209 | 10.56° C | 99% | 1000.5 hPa | 3.05 mm | - | 52 W/m² | - |
| 1787670904 | 10.56° C | 99% | 1000.6 hPa | 3.05 mm | - | 51 W/m² | - |
| 1787670600 | 10.56° C | 99% | 1000.5 hPa | 1.27 mm | - | 55 W/m² | - |
| 1787670299 | 10.56° C | 99% | 1000.5 hPa | 3.05 mm | - | 54 W/m² | - |
| 1787669998 | 10.56° C | 99% | 1000.4 hPa | 4.32 mm | - | 47 W/m² | - |
| 1787669694 | 10.56° C | 99% | 1000.8 hPa | 7.87 mm | - | 33 W/m² | - |
| 1787669388 | 10.56° C | 99% | 1000.7 hPa | 7.87 mm | - | 39 W/m² | - |
| 1787669084 | 10.56° C | 99% | 1000.9 hPa | 4.32 mm | - | 33 W/m² | - |
| 1787668780 | 10.56° C | 99% | 1001.2 hPa | 4.32 mm | - | 25 W/m² | - |
| 1787668476 | 10.56° C | 99% | 1001.2 hPa | 4.32 mm | - | 18 W/m² | - |
| 1787668171 | 10.56° C | 99% | 1001.3 hPa | 3.05 mm | - | 13 W/m² | - |
| 1787667866 | 10.56° C | 99% | 1001.3 hPa | 4.83 mm | - | 22 W/m² | - |
| 1787667562 | 10.56° C | 99% | 1001.5 hPa | 4.83 mm | - | 32 W/m² | - |
| 1787667258 | 10.56° C | 99% | 1001.1 hPa | 4.83 mm | - | 41 W/m² | - |
| 1787666957 | 10.56° C | 99% | 1001.1 hPa | 4.83 mm | - | 28 W/m² | - |
| 1787666654 | 10.56° C | 99% | 1001.3 hPa | 6.1 mm | - | 23 W/m² | - |
| 1787666352 | 10.56° C | 99% | 1001.1 hPa | 4.32 mm | - | 39 W/m² | - |
| 1787666048 | 10.56° C | 99% | 1001.3 hPa | 4.32 mm | - | 27 W/m² | - |
* Rain latest hour (hover to see other rain measurements)
** Current wind speed in m/s (hover to see current wind gust speed)